createdAt,value
2022-11-30T00:02:18.346Z,6.00
2022-11-30T00:07:20.142Z,5.99
2022-11-30T00:12:21.743Z,5.99
2022-11-30T00:17:23.424Z,5.96
2022-11-30T00:22:24.983Z,5.98
2022-11-30T00:27:30.788Z,6.01
2022-11-30T00:32:32.619Z,6.06
2022-11-30T00:37:36.988Z,6.07
2022-11-30T00:42:38.531Z,6.07
2022-11-30T00:47:40.082Z,6.08
2022-11-30T00:52:41.612Z,6.11
2022-11-30T00:57:43.590Z,6.13
2022-11-30T01:02:45.531Z,6.16
2022-11-30T01:07:47.192Z,6.21
2022-11-30T01:12:49.447Z,6.21
2022-11-30T01:17:51.820Z,6.21
2022-11-30T01:22:55.554Z,6.21
2022-11-30T01:27:57.116Z,6.22
2022-11-30T01:33:03.392Z,6.25
2022-11-30T01:38:04.928Z,6.26
2022-11-30T01:43:11.812Z,6.21
2022-11-30T01:48:13.581Z,6.17
2022-11-30T01:53:15.149Z,6.13
2022-11-30T01:58:24.078Z,6.10
2022-11-30T02:03:49.032Z,6.08
2022-11-30T02:08:51.909Z,6.07
2022-11-30T02:14:02.694Z,6.08
2022-11-30T02:19:06.936Z,6.11
2022-11-30T02:24:21.699Z,6.15
2022-11-30T02:29:29.870Z,6.14
2022-11-30T02:34:35.208Z,6.17
2022-11-30T02:39:36.735Z,6.15
2022-11-30T02:44:38.913Z,6.10
2022-11-30T02:49:54.599Z,6.00
2022-11-30T02:55:14.617Z,5.92
2022-11-30T03:00:17.221Z,5.88
2022-11-30T03:05:18.919Z,5.81
2022-11-30T03:10:20.572Z,5.75
2022-11-30T03:15:22.107Z,5.73
2022-11-30T03:20:23.672Z,5.68
2022-11-30T03:25:25.214Z,5.64
2022-11-30T03:30:26.962Z,5.66
2022-11-30T03:35:28.498Z,5.65
2022-11-30T03:40:32.409Z,5.68
2022-11-30T03:45:33.935Z,5.69
2022-11-30T03:50:35.475Z,5.67
2022-11-30T03:55:36.994Z,5.68
2022-11-30T04:00:39.372Z,5.66
2022-11-30T04:05:40.939Z,5.69
2022-11-30T04:10:42.483Z,5.69
2022-11-30T04:15:47.135Z,5.69
2022-11-30T04:20:56.430Z,5.71
2022-11-30T04:25:58.319Z,5.73
2022-11-30T04:31:00.951Z,5.73
2022-11-30T04:36:05.376Z,5.73
2022-11-30T04:41:08.884Z,5.71
2022-11-30T04:46:10.833Z,5.73
2022-11-30T04:51:12.502Z,5.71
2022-11-30T04:56:14.053Z,5.70
2022-11-30T05:01:15.651Z,5.71
2022-11-30T05:06:17.241Z,5.69
2022-11-30T05:11:18.829Z,5.71
2022-11-30T05:16:20.495Z,5.69
2022-11-30T05:21:24.450Z,5.70
2022-11-30T05:26:26.019Z,5.70
2022-11-30T05:31:27.658Z,5.69
2022-11-30T05:36:29.311Z,5.70
2022-11-30T05:41:30.922Z,5.70
2022-11-30T05:46:33.601Z,5.68
2022-11-30T05:51:36.593Z,5.71
2022-11-30T05:56:38.229Z,5.73
2022-11-30T06:01:39.886Z,5.74
2022-11-30T06:06:41.448Z,5.71
2022-11-30T06:11:43.094Z,5.65
2022-11-30T06:16:45.345Z,5.59
2022-11-30T06:21:46.948Z,5.56
2022-11-30T06:26:48.566Z,5.52
2022-11-30T06:31:50.314Z,5.50
2022-11-30T06:36:51.875Z,5.51
2022-11-30T06:41:54.710Z,5.51
2022-11-30T06:46:56.408Z,5.51
2022-11-30T06:51:57.973Z,5.49
2022-11-30T06:56:59.776Z,5.51
2022-11-30T07:02:07.495Z,5.53
2022-11-30T07:07:10.474Z,5.53
2022-11-30T07:12:12.189Z,5.54
2022-11-30T07:17:13.812Z,5.54
2022-11-30T07:22:15.394Z,5.51
2022-11-30T07:27:16.954Z,5.53
2022-11-30T07:32:19.055Z,5.55
2022-11-30T07:37:20.602Z,5.55
2022-11-30T07:42:22.974Z,5.54
2022-11-30T07:47:24.528Z,5.53
2022-11-30T07:52:26.118Z,5.51
2022-11-30T07:57:27.701Z,5.55
2022-11-30T08:02:31.704Z,5.60
2022-11-30T08:07:34.409Z,5.64
2022-11-30T08:12:35.958Z,5.74
2022-11-30T08:17:37.613Z,5.75
2022-11-30T08:22:39.150Z,5.70
2022-11-30T08:27:40.696Z,5.71
2022-11-30T08:32:42.284Z,5.73
2022-11-30T08:37:43.879Z,5.80
2022-11-30T08:42:45.419Z,5.83
2022-11-30T08:47:47.558Z,5.88
2022-11-30T08:52:49.094Z,5.95
2022-11-30T08:57:50.695Z,6.06
2022-11-30T09:02:52.313Z,6.19
2022-11-30T09:07:53.959Z,6.31
2022-11-30T09:12:55.609Z,6.47
2022-11-30T09:17:57.180Z,6.40
2022-11-30T09:22:59.648Z,6.37
2022-11-30T09:28:01.210Z,6.29
2022-11-30T09:33:02.765Z,6.25
2022-11-30T09:38:06.701Z,6.23
2022-11-30T09:43:44.547Z,6.21
2022-11-30T09:48:52.831Z,6.29
2022-11-30T09:54:02.636Z,6.37
2022-11-30T09:59:17.708Z,6.42
2022-11-30T10:04:24.768Z,6.47
2022-11-30T10:10:23.344Z,6.51
2022-11-30T10:15:48.507Z,6.62
2022-11-30T10:21:24.989Z,6.61
2022-11-30T10:26:38.310Z,6.67
2022-11-30T10:31:42.474Z,6.70
2022-11-30T10:36:49.918Z,6.71
2022-11-30T10:42:00.084Z,6.79
2022-11-30T10:47:16.359Z,6.78
2022-11-30T10:52:26.569Z,6.77
2022-11-30T10:57:31.649Z,6.82
2022-11-30T11:02:38.191Z,6.84
2022-11-30T11:07:50.299Z,6.91
2022-11-30T11:12:54.643Z,7.09
2022-11-30T11:18:32.886Z,7.44
2022-11-30T11:23:40.207Z,7.63
2022-11-30T11:28:45.771Z,7.73
2022-11-30T11:33:53.732Z,7.69
2022-11-30T11:38:56.119Z,7.65
2022-11-30T11:44:09.827Z,7.49
2022-11-30T11:49:32.883Z,7.41
2022-11-30T11:54:58.997Z,7.41
2022-11-30T12:00:02.651Z,7.33
2022-11-30T12:05:12.206Z,7.21
2022-11-30T12:10:50.092Z,7.17
2022-11-30T12:16:10.575Z,7.19
2022-11-30T12:21:24.422Z,7.24
2022-11-30T12:26:39.709Z,7.24
2022-11-30T12:31:59.509Z,7.22
2022-11-30T12:37:06.718Z,7.20
2022-11-30T12:42:32.889Z,7.17
2022-11-30T12:47:53.263Z,7.23
2022-11-30T12:53:09.632Z,7.23
2022-11-30T12:58:17.113Z,7.25
2022-11-30T13:03:37.417Z,7.40
2022-11-30T13:08:49.208Z,7.55
2022-11-30T13:13:55.571Z,7.50
2022-11-30T13:19:07.738Z,7.47
2022-11-30T13:24:29.041Z,7.42
2022-11-30T13:29:57.365Z,7.39
2022-11-30T13:35:32.991Z,7.40
2022-11-30T13:40:34.548Z,7.50
2022-11-30T13:45:36.442Z,7.48
2022-11-30T13:50:40.005Z,7.42
2022-11-30T13:55:41.549Z,7.33
2022-11-30T14:00:45.023Z,7.32
2022-11-30T14:05:48.104Z,7.28
2022-11-30T14:10:54.923Z,7.21
2022-11-30T14:16:00.528Z,7.11
2022-11-30T14:21:19.740Z,7.04
2022-11-30T14:26:27.416Z,6.97
2022-11-30T14:31:33.527Z,6.95
2022-11-30T14:36:41.109Z,6.94
2022-11-30T14:41:43.149Z,6.91
2022-11-30T14:46:45.082Z,6.88
2022-11-30T14:52:05.377Z,6.84
2022-11-30T14:57:16.683Z,6.80
2022-11-30T15:02:23.484Z,6.77
2022-11-30T15:07:26.147Z,6.80
2022-11-30T15:12:27.968Z,6.79
2022-11-30T15:17:29.543Z,6.75
2022-11-30T15:22:35.237Z,6.74
2022-11-30T15:27:36.858Z,6.66
2022-11-30T15:32:38.541Z,6.62
2022-11-30T15:37:41.157Z,6.58
2022-11-30T15:42:44.027Z,6.52
2022-11-30T15:47:45.604Z,6.49
2022-11-30T15:52:50.033Z,6.44
2022-11-30T15:58:02.452Z,6.39
2022-11-30T16:03:12.150Z,6.36
2022-11-30T16:08:18.206Z,6.34
2022-11-30T16:13:22.544Z,6.32
2022-11-30T16:18:27.148Z,6.32
2022-11-30T16:23:29.370Z,6.32
2022-11-30T16:28:30.898Z,6.33
2022-11-30T16:33:32.584Z,6.37
2022-11-30T16:38:34.173Z,6.37
2022-11-30T16:43:38.966Z,6.33
2022-11-30T16:48:40.596Z,6.29
2022-11-30T16:53:42.496Z,6.22
2022-11-30T16:58:44.769Z,6.17
2022-11-30T17:03:49.939Z,6.19
2022-11-30T17:08:51.535Z,6.19
2022-11-30T17:13:53.176Z,6.18
2022-11-30T17:18:54.839Z,6.14
2022-11-30T17:23:56.832Z,6.13
2022-11-30T17:28:58.403Z,6.11
2022-11-30T17:34:00.086Z,6.05
2022-11-30T17:39:08.174Z,6.01
2022-11-30T17:44:10.538Z,5.95
2022-11-30T17:49:12.136Z,5.91
2022-11-30T17:54:13.834Z,5.90
2022-11-30T17:59:15.425Z,5.89
2022-11-30T18:04:17.364Z,5.87
2022-11-30T18:09:18.976Z,5.85
2022-11-30T18:14:20.558Z,5.83
2022-11-30T18:19:22.187Z,5.80
2022-11-30T18:24:25.485Z,5.78
2022-11-30T18:29:27.667Z,5.80
2022-11-30T18:34:29.331Z,5.84
2022-11-30T18:39:33.003Z,5.83
2022-11-30T18:44:34.591Z,5.82
2022-11-30T18:49:36.131Z,5.80
2022-11-30T18:54:38.037Z,5.80
2022-11-30T18:59:39.575Z,5.81
2022-11-30T19:04:41.106Z,5.75
2022-11-30T19:09:43.032Z,5.67
2022-11-30T19:14:45.377Z,5.60
2022-11-30T19:19:47.304Z,5.55
2022-11-30T19:24:49.056Z,5.54
2022-11-30T19:29:50.726Z,5.50
2022-11-30T19:34:52.615Z,5.49
2022-11-30T19:39:54.198Z,5.45
2022-11-30T19:44:55.731Z,5.41
2022-11-30T19:49:57.279Z,5.40
2022-11-30T19:54:58.839Z,5.34
2022-11-30T20:00:00.418Z,5.32
2022-11-30T20:05:01.969Z,5.29
2022-11-30T20:10:04.016Z,5.24
2022-11-30T20:15:06.768Z,5.20
2022-11-30T20:20:08.694Z,5.11
2022-11-30T20:25:10.295Z,5.04
2022-11-30T20:30:11.949Z,4.96
2022-11-30T20:35:14.225Z,4.91
2022-11-30T20:40:15.950Z,4.87
2022-11-30T20:45:17.479Z,4.84
2022-11-30T20:50:19.029Z,4.79
2022-11-30T20:55:20.578Z,4.70
2022-11-30T21:00:22.246Z,4.62
2022-11-30T21:05:23.803Z,4.49
2022-11-30T21:10:25.455Z,4.40
2022-11-30T21:15:27.138Z,4.32
2022-11-30T21:20:28.702Z,4.27
2022-11-30T21:25:30.481Z,4.16
2022-11-30T21:30:32.148Z,4.13
2022-11-30T21:35:33.706Z,4.05
2022-11-30T21:40:35.231Z,4.00
2022-11-30T21:45:36.807Z,3.95
2022-11-30T21:50:38.357Z,3.86
2022-11-30T21:55:39.936Z,3.83
2022-11-30T22:00:41.490Z,3.78
2022-11-30T22:05:43.028Z,3.75
2022-11-30T22:10:44.575Z,3.75
2022-11-30T22:15:46.165Z,3.67
2022-11-30T22:20:47.739Z,3.66
2022-11-30T22:25:49.291Z,3.66
2022-11-30T22:30:50.867Z,3.72
2022-11-30T22:35:54.289Z,3.76
2022-11-30T22:41:02.464Z,3.74
2022-11-30T22:46:06.262Z,3.71
2022-11-30T22:51:10.766Z,3.68
2022-11-30T22:56:17.677Z,3.69
2022-11-30T23:01:24.576Z,3.67
2022-11-30T23:06:26.149Z,3.65
2022-11-30T23:11:28.584Z,3.67
2022-11-30T23:16:30.189Z,3.67
2022-11-30T23:21:41.485Z,3.60
2022-11-30T23:26:44.007Z,3.57
2022-11-30T23:31:47.113Z,3.55
2022-11-30T23:36:49.007Z,3.57
2022-11-30T23:41:50.888Z,3.56
2022-11-30T23:46:52.569Z,3.60
2022-11-30T23:51:54.267Z,3.59
2022-11-30T23:56:55.836Z,3.62
